Airfield :
LOGIN :

Register | Disclaimer

   EN    FR    IT 

 










Legend :    VFR   Marginal VFR   IFR   Intensive IFR   Very Intensive IFR
Visi :
Ceiling :
>= 8 km
>= 3000ft
5 to 8 km
1000 to 3000 ft
1500m to 5 km
500 to 1000 ft
800 to 1500m
200 to 500 ft
< 800m
< 200 ft
Symbols :   Thunderstorms  Fog  Heavy snow  Heavy precipitations  Wind > 20 kt
SIGMETs :     Misc.  Thunderstorms  Icing  Turbulence  Mountain Waves  Volcanic Ashes







- Airport Elevation : 505 ft
- IATA code : SXB
- Download approach charts


LFST - Strasbourg

CURRENT METAR :
  • 200900Z AUTO 19005KT 9000 NSC 01/00 Q1024 TEMPO 3000 BR BKN003

EXPIRED METARs :
  • 200830Z AUTO 20003KT 160V240 6000 FEW003 OVC090 01/00 Q1024 TEMPO 3000 BR BKN003
  • 200800Z AUTO 17004KT 140V200 4700 BR BKN002 BKN096 OVC110 00/00 Q1024 TEMPO 0800 FZFG VV///
  • 200730Z AUTO 22003KT 200V260 6000 SCT003 OVC094 00/M00 Q1024 TEMPO 3000 BR VV///
  • 200700Z AUTO VRB03KT 5000 BR SCT003 BKN098 BKN130 M00/M00 Q1024 TEMPO 0800 FZFG VV///
  • 200630Z AUTO VRB02KT 8000 BKN001 BKN100 OVC150 M00/M00 Q1024 TEMPO 0800 FZFG VV///

TAF TAF LFST
Valid from the 20 at 06:00 until the 21 at 06:00 UTC


200500Z 2006/2106 VRB03KT CAVOK
TEMPO 2006/2010 3000 BR BKN003
PROB40
TEMPO 2006/2009 0800 FZFG VV///
BECMG 2010/2012 19012KT
BECMG 2014/2016 OVC025
TEMPO 2016/2106 4000 -RA
PROB40
TEMPO 2100/2106 BKN005
No reported NOTAMs for that airfield.



MET'MAP, your aeronautical weather chart ! - Copyright ORBIFLY December 2007 - Disclaimer

ORBIFLY MET'MAP TEAM :

Programming & Development : Alexandra Zaïnal
Concept & Development : Baudouin d'Aumeries
Co-Development & Prog : Marc-Olivier Méhu
Technical & hardware support : Manuel Goepfert

Contact : metmap@orbifly.com




SOURCES & CREDITS :

   NOAA